Time;durP1;ratioP1;P1;durP2;ratioP2;P2;SDS_P1;SDS_P2;PMS_P1;PMS_P2;Temp;Humidity;BMP_temperature;BMP_pressure;BME280_temperature;BME280_humidity;BME280_pressure;Samples;Min_cycle;Max_cycle;Signal;HPM_P1;HPM_P2
2022/05/13 00:02:59;;;;;;;4.70;3.30;;;;;;;10.06;71.04;100972.52;105484;1287;62382;-86
2022/05/13 00:06:27;;;;;;;6.40;3.60;;;;;;;9.98;70.91;100970.51;105599;1286;60795;-86
2022/05/13 00:09:30;;;;;;;;;;;;;;;;;;;;;
2022/05/13 00:12:52;;;;;;;6.20;4.30;;;;;;;9.81;71.97;100972.01;105652;1287;72572;-88
2022/05/13 00:15:50;;;;;;;;;;;;;;;;;;;;;
2022/05/13 00:19:11;;;;;;;6.20;3.30;;;;;;;9.65;72.51;100971.90;105670;1287;62262;-85
2022/05/13 00:22:22;;;;;;;7.40;4.30;;;;;;;9.58;72.83;100966.05;105768;1285;62192;-86
2022/05/13 00:25:36;;;;;;;6.10;3.30;;;;;;;9.53;73.74;100967.98;105823;1286;78026;-86
2022/05/13 00:28:21;;;;;;;8.20;4.20;;;;;;;9.50;73.89;100968.03;105776;1285;70151;-86
2022/05/13 00:31:19;;;;;;;8.90;5.00;;;;;;;9.46;73.60;100965.79;105647;1285;74487;-86
2022/05/13 00:34:16;;;;;;;6.90;4.50;;;;;;;9.41;74.29;100967.90;105528;1287;62089;-86
2022/05/13 00:37:13;;;;;;;7.40;4.60;;;;;;;9.37;74.36;100967.16;105686;1287;60211;-86
2022/05/13 00:40:10;;;;;;;8.40;4.50;;;;;;;9.34;75.05;100965.40;105594;1287;75471;-87
2022/05/13 00:43:02;;;;;;;10.70;5.10;;;;;;;9.32;75.98;100967.23;106605;1285;71451;-86
2022/05/13 00:45:57;;;;;;;;;;;;;;;;;;;;;
2022/05/13 00:49:04;;;;;;;9.40;4.30;;;;;;;9.27;76.04;100970.02;107023;1285;63186;-86
2022/05/13 00:51:49;;;;;;;5.30;4.00;;;;;;;9.23;75.80;100967.95;105991;1285;62137;-86
2022/05/13 00:54:49;;;;;;;6.70;4.20;;;;;;;9.19;75.67;100966.42;105835;1286;76202;-86
2022/05/13 00:57:44;;;;;;;7.90;4.40;;;;;;;9.16;75.89;100967.45;105912;1285;73029;-87
2022/05/13 01:00:35;;;;;;;7.00;3.80;;;;;;;9.11;76.18;100964.97;105844;1285;72375;-86
2022/05/13 01:03:30;;;;;;;7.30;3.40;;;;;;;9.08;76.39;100960.86;105560;1287;62408;-86
2022/05/13 01:06:59;;;;;;;11.20;4.40;;;;;;;9.05;76.59;100956.25;105802;1286;62114;-88
2022/05/13 01:12:41;;;;;;;9.60;4.80;;;;;;;9.04;77.22;100957.63;106009;1287;71876;-86
2022/05/13 01:15:55;;;;;;;;;;;;;;;;;;;;;
2022/05/13 01:18:54;;;;;;;;;;;;;;;;;;;;;
2022/05/13 01:22:09;;;;;;;7.60;3.80;;;;;;;9.07;77.25;100951.11;105540;1288;62084;-85
2022/05/13 01:25:17;;;;;;;3.50;2.90;;;;;;;9.07;76.84;100953.04;105495;1287;77060;-86
2022/05/13 01:28:28;;;;;;;9.80;4.20;;;;;;;9.08;77.17;100953.67;105504;1287;72779;-87
2022/05/13 01:31:44;;;;;;;9.50;4.90;;;;;;;9.10;77.18;100953.68;105310;1290;74548;-87
2022/05/13 01:34:43;;;;;;;8.40;4.10;;;;;;;9.11;77.23;100954.34;105551;1287;61984;-86
2022/05/13 01:37:44;;;;;;;8.00;4.40;;;;;;;9.12;77.34;100949.20;105394;1288;62124;-86
2022/05/13 01:41:13;;;;;;;9.80;5.00;;;;;;;9.14;77.45;100945.44;105489;1287;77738;-87
2022/05/13 01:44:41;;;;;;;7.00;4.30;;;;;;;9.15;77.42;100946.41;105564;1288;70929;-85
2022/05/13 01:47:31;;;;;;;9.30;5.10;;;;;;;9.16;77.39;100944.52;105341;1289;74346;-86
2022/05/13 01:50:22;;;;;;;6.30;4.90;;;;;;;9.17;77.69;100944.88;105421;1290;62223;-86
2022/05/13 01:53:50;;;;;;;7.60;5.00;;;;;;;9.20;77.90;100940.02;105339;1289;62005;-86
2022/05/13 01:57:03;;;;;;;9.80;4.50;;;;;;;9.25;77.85;100936.17;105537;1289;78425;-86
2022/05/13 02:03:44;;;;;;;9.70;5.30;;;;;;;9.35;77.70;100940.11;105541;1275;73624;-87
2022/05/13 02:05:46;;;;;;;;;;;;;;;9.42;77.57;100931.45;105124;1288;63114;-88
2022/05/13 02:08:52;;;;;;;;;;;;;;;;;;;;;
2022/05/13 02:12:01;;;;;;;9.60;4.90;;;;;;;9.54;76.98;100929.80;105273;1287;77012;-86
2022/05/13 02:15:03;;;;;;;5.90;4.60;;;;;;;9.57;76.90;100924.41;105504;1287;71365;-86
2022/05/13 02:18:20;;;;;;;8.60;4.90;;;;;;;9.67;76.33;100927.89;105596;1287;73170;-86
2022/05/13 02:21:37;;;;;;;;;;;;;;;;;;;;;
2022/05/13 02:24:27;;;;;;;6.80;4.30;;;;;;;9.76;75.96;100928.81;105592;1287;60631;-88
2022/05/13 02:30:03;;;;;;;6.30;4.50;;;;;;;9.82;75.89;100924.70;105930;1278;68717;-88
2022/05/13 02:33:01;;;;;;;8.90;4.90;;;;;;;9.83;75.34;100924.31;106008;1284;72912;-86
2022/05/13 02:36:14;;;;;;;6.60;3.90;;;;;;;9.81;75.36;100921.10;105724;1284;62066;-85
2022/05/13 02:39:43;;;;;;;9.00;4.20;;;;;;;9.76;75.40;100926.33;105514;1284;62027;-86
2022/05/13 02:42:53;;;;;;;;;;;;;;;;;;;;;
2022/05/13 02:46:09;;;;;;;6.40;4.70;;;;;;;9.63;75.53;100927.08;105925;1284;69788;-86
2022/05/13 02:49:12;;;;;;;;;;;;;;;;;;;;;
2022/05/13 02:52:07;;;;;;;8.30;5.20;;;;;;;9.44;76.55;100923.29;105502;1286;63107;-87
2022/05/13 02:55:12;;;;;;;6.40;4.70;;;;;;;9.36;76.80;100926.35;105948;1285;61246;-88
2022/05/13 02:58:07;;;;;;;6.20;4.40;;;;;;;9.31;76.76;100929.90;105751;1287;77526;-86
2022/05/13 03:00:36;;;;;;;6.20;4.60;;;;;;;9.24;76.93;100933.16;105804;1284;72263;-86
2022/05/13 03:03:12;;;;;;;8.90;4.50;;;;;;;9.17;76.82;100925.69;107271;1285;72950;-87
2022/05/13 03:05:39;;;;;;;9.00;4.80;;;;;;;9.12;76.95;100926.10;107257;1284;62973;-85
2022/05/13 03:08:28;;;;;;;6.20;4.70;;;;;;;9.07;77.41;100920.59;107392;1284;59680;-86
2022/05/13 03:11:17;;;;;;;8.40;4.90;;;;;;;9.02;77.24;100920.59;107657;1284;74449;-86
2022/05/13 03:14:03;;;;;;;9.00;4.90;;;;;;;9.00;77.95;100924.50;106261;1284;73059;-85
2022/05/13 03:17:01;;;;;;;9.30;5.10;;;;;;;8.99;78.05;100920.92;105943;1286;73379;-86
2022/05/13 03:19:42;;;;;;;7.10;4.60;;;;;;;8.98;78.06;100918.14;105854;1286;62353;-86
2022/05/13 03:22:26;;;;;;;7.50;4.70;;;;;;;8.98;78.20;100920.65;105631;1286;62092;-86
2022/05/13 03:25:28;;;;;;;8.30;5.20;;;;;;;9.00;78.16;100920.86;105992;1284;77254;-87
2022/05/13 03:28:14;;;;;;;;;;;;;;;;;;;;;
2022/05/13 03:31:20;;;;;;;9.30;4.80;;;;;;;9.03;78.43;100915.61;106067;1285;72983;-87
2022/05/13 03:34:36;;;;;;;;;;;;;;;;;;;;;
2022/05/13 03:38:05;;;;;;;7.20;5.50;;;;;;;9.06;78.39;100905.41;105873;1286;62054;-87
2022/05/13 03:40:45;;;;;;;10.00;6.50;;;;;;;9.05;78.94;100905.27;106123;1285;76655;-86
2022/05/13 03:43:23;;;;;;;10.10;6.00;;;;;;;9.06;79.57;100903.45;105867;1286;72977;-86
2022/05/13 03:46:26;;;;;;;;;;;;;;;;;;;;;
2022/05/13 03:49:36;;;;;;;8.70;4.80;;;;;;;9.12;80.78;100907.58;106025;1286;61999;-86
2022/05/13 03:53:04;;;;;;;10.80;6.50;;;;;;;9.10;80.61;100900.29;105499;1285;61940;-87
2022/05/13 03:56:19;;;;;;;13.30;6.80;;;;;;;9.17;80.83;100912.42;105537;1285;78504;-86
2022/05/13 03:59:40;;;;;;;;;;;;;;;;;;;;;
2022/05/13 04:02:56;;;;;;;8.30;6.20;;;;;;;9.20;80.64;100911.14;105950;1284;72644;-87
2022/05/13 04:09:18;;;;;;;8.40;5.40;;;;;;;9.25;80.80;100907.91;105878;1284;60780;-88
2022/05/13 04:17:12;;;;;;;8.30;6.20;;;;;;;9.34;80.64;100905.59;107288;1274;73327;-86
2022/05/13 04:22:31;;;;;;;6.70;4.80;;;;;;;9.40;80.93;100903.73;107291;1276;60243;-87
2022/05/13 04:27:28;;;;;;;8.60;5.00;;;;;;;9.47;80.60;100911.64;107080;1287;72351;-81
2022/05/13 04:29:57;;;;;;;6.60;4.70;;;;;;;9.52;80.38;100910.89;107088;1288;74030;-81
2022/05/13 04:32:24;;;;;;;8.20;4.60;;;;;;;9.59;80.33;100909.78;107376;1287;62754;-81
2022/05/13 04:34:51;;;;;;;11.20;6.00;;;;;;;9.67;80.43;100914.42;107403;1286;60634;-82
2022/05/13 04:37:18;;;;;;;8.20;5.50;;;;;;;9.77;80.12;100919.70;107059;1288;75744;-81
2022/05/13 04:39:44;;;;;;;7.60;5.40;;;;;;;9.89;80.16;100919.75;107383;1287;71507;-81
2022/05/13 04:45:16;;;;;;;;;;;;;;;10.17;79.11;100917.06;107377;1286;61799;-81
2022/05/13 04:50:28;;;;;;;10.00;5.50;;;;;;;10.45;78.25;100909.43;107314;1286;75929;-81
2022/05/13 04:52:55;;;;;;;11.80;6.80;;;;;;;10.58;77.77;100920.91;107036;1287;71737;-82
2022/05/13 04:55:22;;;;;;;12.10;6.40;;;;;;;10.69;77.44;100913.33;107077;1287;60628;-81
2022/05/13 04:57:48;;;;;;;9.20;6.10;;;;;;;10.79;76.95;100913.63;107097;1287;62666;-82
2022/05/13 05:00:34;;;;;;;11.70;6.00;;;;;;;10.88;76.45;100913.83;107115;1287;60420;-81
2022/05/13 05:03:01;;;;;;;8.50;5.80;;;;;;;10.98;75.88;100913.66;107120;1287;76814;-81
2022/05/13 05:05:28;;;;;;;11.40;5.90;;;;;;;11.07;75.72;100916.73;107112;1287;72179;-81
2022/05/13 05:07:55;;;;;;;7.00;5.30;;;;;;;11.15;75.53;100919.33;107073;1287;74094;-84
2022/05/13 05:10:22;;;;;;;7.00;5.40;;;;;;;11.21;74.95;100929.45;107060;1287;62243;-82
2022/05/13 05:12:56;;;;;;;9.10;6.30;;;;;;;11.27;74.60;100916.56;107019;1287;60420;-82
2022/05/13 05:15:24;;;;;;;9.40;6.50;;;;;;;11.34;74.59;100922.64;107126;1287;77469;-82
2022/05/13 05:17:50;;;;;;;6.60;5.00;;;;;;;11.41;74.24;100923.64;107043;1286;72024;-81
2022/05/13 05:20:30;;;;;;;9.50;5.50;;;;;;;11.51;73.68;100920.27;106989;1287;74068;-83
2022/05/13 05:22:58;;;;;;;7.20;5.50;;;;;;;11.61;73.11;100912.48;107139;1287;63853;-82
2022/05/13 05:25:28;;;;;;;6.80;4.30;;;;;;;11.72;72.41;100911.59;107112;1287;61180;-82
2022/05/13 05:27:56;;;;;;;9.30;5.80;;;;;;;11.82;72.17;100916.45;107081;1287;75899;-81
2022/05/13 05:30:28;;;;;;;7.70;5.60;;;;;;;11.92;72.07;100918.58;107156;1287;71395;-82
2022/05/13 05:33:28;;;;;;;7.80;5.00;;;;;;;12.01;71.89;100926.87;107139;1287;72948;-88
2022/05/13 05:35:56;;;;;;;8.20;5.50;;;;;;;12.13;71.48;100933.30;106961;1287;63402;-85
2022/05/13 05:38:23;;;;;;;9.40;5.00;;;;;;;12.18;70.88;100937.15;107164;1287;60891;-85
2022/05/13 05:40:55;;;;;;;7.10;5.20;;;;;;;12.21;70.23;100949.02;107186;1287;75511;-85
2022/05/13 05:43:22;;;;;;;5.90;4.10;;;;;;;12.25;69.86;100953.91;107173;1287;71723;-85
2022/05/13 05:45:52;;;;;;;6.10;3.70;;;;;;;12.28;69.51;100955.30;107074;1287;73135;-85
2022/05/13 05:48:31;;;;;;;5.20;3.50;;;;;;;12.31;69.29;100961.42;107124;1287;61929;-85
2022/05/13 05:51:12;;;;;;;7.50;4.70;;;;;;;12.34;69.30;100961.92;107069;1287;59954;-85
2022/05/13 06:00:07;;;;;;;;;;;;;;;;;;;;;
2022/05/13 06:02:51;;;;;;;11.70;4.10;;;;;;;12.55;68.74;100977.16;107301;1286;63279;-85
2022/05/13 06:05:45;;;;;;;;;;;;;;;;;;;;;
2022/05/13 06:08:35;;;;;;;;;;;;;;;;;;;;;
2022/05/13 06:11:19;;;;;;;6.90;3.10;;;;;;;12.74;66.17;100989.48;107317;1287;72107;-85
2022/05/13 06:13:53;;;;;;;6.50;2.60;;;;;;;12.81;65.57;100990.80;107287;1287;75816;-85
2022/05/13 06:16:36;;;;;;;5.40;2.50;;;;;;;12.87;64.31;100988.11;107218;1287;64118;-86
2022/05/13 06:19:09;;;;;;;6.40;2.40;;;;;;;13.00;64.41;100987.64;107123;1287;62057;-84
2022/05/13 06:21:40;;;;;;;4.40;3.20;;;;;;;13.10;63.13;100989.45;107341;1287;76061;-83
2022/05/13 06:24:09;;;;;;;4.30;2.20;;;;;;;13.18;62.88;100991.36;107346;1287;71500;-84
2022/05/13 06:26:36;;;;;;;4.10;2.10;;;;;;;13.24;62.71;100991.53;107288;1287;74034;-84
2022/05/13 06:29:05;;;;;;;5.40;2.70;;;;;;;13.33;63.03;100987.98;107195;1287;61008;-84
2022/05/13 06:31:42;;;;;;;5.60;2.40;;;;;;;13.40;62.75;100989.09;107181;1287;60885;-84
2022/05/13 06:34:10;;;;;;;10.50;3.00;;;;;;;13.43;61.56;100991.84;107315;1287;76098;-84
2022/05/13 06:36:51;;;;;;;6.10;2.40;;;;;;;13.43;60.69;100993.27;107159;1287;71728;-85
2022/05/13 06:39:39;;;;;;;7.00;2.10;;;;;;;13.50;60.34;100992.50;107327;1287;71624;-85
2022/05/13 06:42:11;;;;;;;8.20;2.10;;;;;;;13.56;60.28;100991.05;107313;1287;62686;-85
2022/05/13 06:44:38;;;;;;;5.00;2.70;;;;;;;13.62;59.85;101002.89;107364;1287;60705;-85
2022/05/13 06:47:27;;;;;;;;;;;;;;;;;;;;;
2022/05/13 06:50:03;;;;;;;3.50;1.80;;;;;;;13.74;59.33;101001.27;107233;1287;70713;-85
2022/05/13 06:52:55;;;;;;;7.80;2.60;;;;;;;13.82;59.58;101005.73;107288;1286;71878;-85
2022/05/13 06:55:43;;;;;;;3.80;2.50;;;;;;;13.87;60.09;100997.55;107248;1287;60054;-84
2022/05/13 06:58:20;;;;;;;5.00;2.40;;;;;;;13.93;59.90;101001.70;107373;1286;61599;-83
2022/05/13 07:01:00;;;;;;;9.50;2.70;;;;;;;13.92;59.58;100997.14;107394;1286;76840;-84
2022/05/13 07:03:27;;;;;;;5.70;2.70;;;;;;;13.99;60.01;100997.46;107345;1287;71473;-84
2022/05/13 07:05:54;;;;;;;10.50;3.00;;;;;;;14.07;59.80;101001.07;107041;1287;73254;-84
2022/05/13 07:08:20;;;;;;;7.70;2.90;;;;;;;14.14;59.32;100992.83;107613;1287;60760;-83
2022/05/13 07:10:56;;;;;;;7.30;4.10;;;;;;;14.17;59.80;100996.31;107113;1287;62100;-83
2022/05/13 07:13:24;;;;;;;5.20;2.30;;;;;;;14.27;59.72;100992.60;107141;1287;76923;-83
2022/05/13 07:16:02;;;;;;;5.20;2.50;;;;;;;14.30;59.12;100994.58;107159;1287;71677;-84
2022/05/13 07:18:32;;;;;;;4.10;2.40;;;;;;;14.29;59.34;100990.64;107251;1287;76403;-83
2022/05/13 07:21:09;;;;;;;5.20;2.80;;;;;;;14.27;59.28;100994.73;107187;1287;60696;-84
2022/05/13 07:23:36;;;;;;;4.60;1.80;;;;;;;14.28;58.91;101000.45;107203;1287;62793;-85
2022/05/13 07:26:06;;;;;;;9.10;4.30;;;;;;;14.25;58.53;100996.76;107248;1287;76827;-85
2022/05/13 07:28:38;;;;;;;8.70;3.00;;;;;;;14.27;58.39;101000.52;107307;1287;72427;-84
2022/05/13 07:31:08;;;;;;;7.90;3.30;;;;;;;14.31;58.95;101003.17;107288;1285;74005;-85
2022/05/13 07:33:36;;;;;;;7.70;2.70;;;;;;;14.34;58.41;101003.53;107137;1287;61183;-85
2022/05/13 07:36:07;;;;;;;10.10;2.60;;;;;;;14.34;57.95;101006.16;107305;1287;60341;-85
2022/05/13 07:38:35;;;;;;;6.90;2.10;;;;;;;14.32;58.47;101009.79;107235;1287;76776;-85
2022/05/13 07:41:17;;;;;;;6.20;2.20;;;;;;;14.35;57.73;101010.11;107147;1287;71532;-85
2022/05/13 07:43:49;;;;;;;7.60;1.90;;;;;;;14.29;57.52;101011.52;107327;1287;72947;-85
2022/05/13 07:46:21;;;;;;;5.00;2.20;;;;;;;14.20;57.25;101015.85;107232;1287;60813;-86
2022/05/13 07:48:51;;;;;;;3.10;1.70;;;;;;;14.07;57.15;101009.24;107455;1285;60497;-86
2022/05/13 07:51:25;;;;;;;4.00;1.90;;;;;;;14.01;57.50;101008.67;107602;1287;75932;-85
2022/05/13 07:53:58;;;;;;;6.00;1.90;;;;;;;14.04;57.70;101011.46;107598;1287;71509;-85
2022/05/13 07:56:27;;;;;;;6.70;2.30;;;;;;;14.16;57.70;101001.59;107652;1286;72884;-86
2022/05/13 07:59:07;;;;;;;5.80;1.60;;;;;;;14.21;56.42;101010.19;107573;1286;60717;-85
2022/05/13 08:01:34;;;;;;;6.50;1.60;;;;;;;14.33;56.41;100997.20;107597;1287;59667;-85
2022/05/13 08:04:01;;;;;;;4.50;1.80;;;;;;;14.53;56.11;101003.41;107146;1287;75951;-85
2022/05/13 08:06:28;;;;;;;5.20;2.20;;;;;;;14.69;56.20;101003.14;107219;1287;71598;-85
2022/05/13 08:08:58;;;;;;;8.30;1.70;;;;;;;14.82;56.02;101005.05;107084;1287;71675;-85
2022/05/13 08:11:29;;;;;;;7.80;1.80;;;;;;;14.96;56.02;100997.81;107122;1287;60990;-84
2022/05/13 08:13:56;;;;;;;6.60;1.90;;;;;;;15.05;55.81;101002.38;107203;1287;60554;-84
2022/05/13 08:16:26;;;;;;;13.30;1.80;;;;;;;15.12;55.97;101009.54;107362;1287;75037;-84
2022/05/13 08:18:54;;;;;;;4.20;1.60;;;;;;;15.12;55.73;101009.13;107012;1287;71573;-84
2022/05/13 08:21:21;;;;;;;5.90;1.60;;;;;;;15.05;56.25;101015.63;107282;1286;73965;-84
2022/05/13 08:23:49;;;;;;;6.90;1.50;;;;;;;15.12;56.38;101012.75;107310;1285;60637;-84
2022/05/13 08:26:19;;;;;;;3.50;1.50;;;;;;;15.16;56.74;101016.09;107196;1286;60020;-84
2022/05/13 08:28:46;;;;;;;3.80;1.50;;;;;;;15.35;56.37;101014.13;107231;1287;75882;-84
2022/05/13 08:31:15;;;;;;;5.00;1.60;;;;;;;15.54;55.54;101017.63;107142;1287;71370;-85
2022/05/13 08:33:52;;;;;;;5.50;1.90;;;;;;;15.67;55.09;101019.29;107388;1285;72793;-85
2022/05/13 08:36:22;;;;;;;6.40;1.80;;;;;;;15.77;55.07;101021.77;107293;1287;59935;-85
2022/05/13 08:38:50;;;;;;;6.00;2.10;;;;;;;15.70;55.10;101029.30;107234;1286;60625;-85
2022/05/13 08:41:24;;;;;;;5.40;1.90;;;;;;;15.69;55.59;101024.02;107342;1287;76381;-85
2022/05/13 08:44:01;;;;;;;5.10;1.50;;;;;;;15.75;55.32;101016.16;107533;1286;72148;-84
2022/05/13 08:47:02;;;;;;;6.10;2.00;;;;;;;15.80;55.39;101015.60;107461;1287;72920;-84
2022/05/13 08:49:51;;;;;;;6.60;1.60;;;;;;;15.82;54.99;101024.17;107268;1287;59994;-85
2022/05/13 08:55:31;;;;;;;6.00;1.60;;;;;;;15.79;55.31;101027.25;107300;1286;78050;-85
2022/05/13 08:58:01;;;;;;;5.30;1.60;;;;;;;15.76;54.99;101030.98;107090;1287;71455;-85
2022/05/13 09:00:44;;;;;;;5.60;1.80;;;;;;;15.75;55.13;101030.90;107339;1286;72334;-85
2022/05/13 09:03:50;;;;;;;7.00;1.80;;;;;;;15.70;55.87;101031.91;107399;1287;60864;-85
2022/05/13 09:06:30;;;;;;;4.10;1.50;;;;;;;15.61;56.08;101039.14;107388;1287;61963;-84
2022/05/13 09:09:00;;;;;;;4.50;1.80;;;;;;;15.47;56.44;101046.64;107365;1287;77251;-84
2022/05/13 09:11:50;;;;;;;4.70;1.70;;;;;;;15.31;56.41;101041.64;107182;1287;70438;-83
2022/05/13 09:14:41;;;;;;;4.30;1.70;;;;;;;15.16;57.68;101047.30;107377;1285;72693;-83
2022/05/13 09:17:27;;;;;;;11.70;2.60;;;;;;;15.02;57.60;101047.13;107330;1287;60452;-83
2022/05/13 09:20:01;;;;;;;5.10;1.70;;;;;;;15.01;58.38;101039.27;107163;1287;60344;-84
2022/05/13 09:22:33;;;;;;;6.50;1.90;;;;;;;15.08;58.46;101045.08;107209;1287;75713;-83
2022/05/13 09:25:00;;;;;;;5.30;2.00;;;;;;;15.20;57.95;101038.61;107117;1287;72401;-84
2022/05/13 09:28:10;;;;;;;9.80;1.60;;;;;;;15.35;58.23;101033.82;107322;1285;74339;-83
2022/05/13 09:30:43;;;;;;;8.10;2.20;;;;;;;15.45;57.40;101040.63;107173;1287;60733;-85
2022/05/13 09:33:22;;;;;;;6.30;2.00;;;;;;;15.46;57.08;101046.02;107223;1287;61853;-84
2022/05/13 09:35:53;;;;;;;12.00;3.10;;;;;;;15.55;56.81;101042.08;107292;1286;75669;-84
2022/05/13 09:38:25;;;;;;;6.90;2.00;;;;;;;15.61;57.06;101048.46;107327;1287;72840;-84
2022/05/13 09:41:08;;;;;;;6.90;1.80;;;;;;;15.67;56.74;101044.30;107347;1286;73089;-85
2022/05/13 09:43:52;;;;;;;7.80;2.30;;;;;;;15.69;56.46;101042.17;106743;1287;758696;-85
2022/05/13 09:46:42;;;;;;;5.00;2.10;;;;;;;15.82;56.39;101043.64;107317;1287;60367;-85
2022/05/13 09:49:21;;;;;;;5.10;1.60;;;;;;;15.97;55.60;101037.63;107116;1287;76769;-84
2022/05/13 09:51:57;;;;;;;4.20;2.20;;;;;;;16.05;54.42;101037.31;107347;1286;72786;-84
2022/05/13 09:54:33;;;;;;;3.20;1.40;;;;;;;16.06;54.54;101036.91;107295;1287;74077;-85
2022/05/13 09:57:04;;;;;;;9.40;2.30;;;;;;;16.07;54.72;101033.13;107307;1287;61723;-85
2022/05/13 09:59:36;;;;;;;5.30;1.90;;;;;;;16.30;53.81;101027.69;107328;1286;59372;-84
2022/05/13 10:02:31;;;;;;;8.20;1.90;;;;;;;16.43;52.68;101018.17;107340;1287;73392;-85
2022/05/13 10:05:24;;;;;;;7.60;2.50;;;;;;;16.43;53.68;101019.91;107292;1287;73483;-85
2022/05/13 10:07:54;;;;;;;3.00;1.60;;;;;;;16.56;51.90;101035.28;107273;1285;72785;-85
2022/05/13 10:16:08;;;;;;;7.50;2.40;;;;;;;16.81;50.41;101025.30;107244;1286;75768;-84
2022/05/13 10:18:41;;;;;;;2.50;1.20;;;;;;;16.90;51.62;101021.71;107305;1286;71644;-84
2022/05/13 10:22:09;;;;;;;5.60;1.60;;;;;;;16.98;49.78;101023.35;107321;1287;72969;-85
2022/05/13 10:25:01;;;;;;;5.50;1.30;;;;;;;17.02;49.27;101030.08;107213;1287;60209;-85
2022/05/13 10:27:57;;;;;;;7.70;1.50;;;;;;;16.98;47.80;101033.33;107339;1287;60575;-84
2022/05/13 10:30:44;;;;;;;3.00;1.00;;;;;;;16.91;48.65;101030.21;107343;1287;77420;-84
2022/05/13 10:33:38;;;;;;;6.70;1.60;;;;;;;16.89;49.14;101030.46;107159;1287;72192;-85
2022/05/13 10:36:14;;;;;;;4.70;1.50;;;;;;;17.02;48.68;101037.78;107332;1287;74124;-84
2022/05/13 10:39:23;;;;;;;5.30;2.30;;;;;;;17.02;47.82;101040.63;107212;1286;61534;-85
2022/05/13 10:41:58;;;;;;;3.20;1.30;;;;;;;17.09;47.81;101039.95;107167;1287;59858;-85
2022/05/13 10:44:58;;;;;;;5.40;1.70;;;;;;;17.10;48.03;101048.11;107333;1286;76836;-85
2022/05/13 10:47:33;;;;;;;4.00;1.30;;;;;;;17.14;47.30;101046.74;107374;1286;72299;-85
2022/05/13 10:50:00;;;;;;;3.40;1.20;;;;;;;17.48;46.17;101039.67;107331;1286;72947;-85
2022/05/13 10:53:01;;;;;;;3.20;1.70;;;;;;;17.69;45.36;101043.14;107325;1286;60023;-85
2022/05/13 10:55:47;;;;;;;4.00;1.20;;;;;;;17.66;44.83;101040.59;107164;1285;60118;-85
2022/05/13 10:58:19;;;;;;;5.40;1.00;;;;;;;17.59;45.21;101048.74;107267;1287;75578;-85
2022/05/13 11:00:53;;;;;;;7.20;0.90;;;;;;;17.64;45.28;101042.13;107173;1286;70998;-85
2022/05/13 11:03:34;;;;;;;4.10;1.00;;;;;;;17.71;44.36;101051.70;106996;1286;72689;-83
2022/05/13 11:06:46;;;;;;;4.60;1.50;;;;;;;17.78;44.77;101051.32;107318;1286;62329;-84
2022/05/13 11:09:28;;;;;;;4.20;1.10;;;;;;;17.79;44.16;101058.64;106563;1291;61019;-84
2022/05/13 11:12:09;;;;;;;6.70;1.70;;;;;;;17.73;43.70;101055.79;106997;1288;78039;-85
2022/05/13 11:14:48;;;;;;;3.70;1.20;;;;;;;17.82;44.73;101055.14;107245;1287;72739;-85
2022/05/13 11:17:26;;;;;;;3.60;1.20;;;;;;;17.88;44.58;101062.27;107245;1287;73123;-84
2022/05/13 11:20:10;;;;;;;3.90;1.20;;;;;;;18.08;44.22;101051.25;107274;1285;59860;-82
2022/05/13 11:22:50;;;;;;;5.10;1.00;;;;;;;18.23;44.24;101055.30;107272;1287;60340;-83
2022/05/13 11:29:03;;;;;;;2.70;1.30;;;;;;;17.87;45.08;101058.83;107330;1286;72790;-85
2022/05/13 11:31:59;;;;;;;4.80;1.20;;;;;;;17.58;45.73;101057.70;107319;1286;73343;-85
2022/05/13 11:34:26;;;;;;;3.80;1.00;;;;;;;17.37;44.88;101072.52;107212;1287;60685;-85
2022/05/13 11:36:58;;;;;;;1.90;0.90;;;;;;;17.24;45.33;101067.48;107108;1287;60822;-85
2022/05/13 11:39:47;;;;;;;2.70;0.90;;;;;;;17.15;45.94;101066.37;107319;1286;77446;-86
2022/05/13 11:45:49;;;;;;;4.40;1.40;;;;;;;17.30;46.61;101071.13;107404;1287;73651;-86
2022/05/13 11:49:14;;;;;;;4.50;1.10;;;;;;;17.51;46.65;101072.22;107321;1286;60350;-86
2022/05/13 11:51:42;;;;;;;4.50;1.30;;;;;;;17.42;46.84;101065.56;107274;1286;61694;-85
2022/05/13 11:54:17;;;;;;;4.80;1.40;;;;;;;17.18;47.27;101072.31;107246;1287;76682;-86
2022/05/13 11:56:46;;;;;;;6.00;1.90;;;;;;;16.94;48.44;101062.49;107223;1287;72134;-86
2022/05/13 11:59:31;;;;;;;6.50;1.40;;;;;;;16.75;48.34;101069.11;107049;1287;73063;-86
2022/05/13 12:02:28;;;;;;;5.60;1.40;;;;;;;16.49;49.19;101076.27;107304;1287;60355;-84
2022/05/13 12:05:04;;;;;;;4.00;1.30;;;;;;;16.35;49.64;101074.07;107187;1286;61649;-84
2022/05/13 12:07:52;;;;;;;6.40;1.50;;;;;;;16.26;50.01;101080.23;107337;1287;75876;-85
2022/05/13 12:10:46;;;;;;;3.90;1.20;;;;;;;16.44;49.66;101083.14;107398;1286;71866;-84
2022/05/13 12:13:24;;;;;;;2.30;1.00;;;;;;;16.65;49.16;101080.44;107263;1286;73035;-84
2022/05/13 12:16:15;;;;;;;5.80;2.00;;;;;;;16.86;48.83;101082.44;107257;1287;60692;-84
2022/05/13 12:18:54;;;;;;;7.70;1.60;;;;;;;17.08;48.55;101085.07;107141;1286;60782;-84
2022/05/13 12:21:33;;;;;;;4.90;1.40;;;;;;;17.15;48.44;101081.18;107212;1286;75548;-83
2022/05/13 12:24:19;;;;;;;6.50;1.60;;;;;;;17.21;48.43;101079.20;107339;1287;71398;-83
2022/05/13 12:27:13;;;;;;;6.10;1.20;;;;;;;17.14;47.98;101083.94;107178;1287;73846;-83
2022/05/13 12:30:07;;;;;;;4.10;1.40;;;;;;;17.02;48.79;101084.50;107329;1285;61246;-84
2022/05/13 12:33:09;;;;;;;4.40;1.40;;;;;;;16.88;49.26;101084.39;107258;1285;60005;-84
2022/05/13 12:38:26;;;;;;;5.80;1.40;;;;;;;16.67;48.94;101099.92;107279;1286;72481;-85
2022/05/13 12:41:34;;;;;;;6.60;1.30;;;;;;;16.78;47.68;101094.21;107167;1287;72706;-84
2022/05/13 12:44:09;;;;;;;4.40;1.20;;;;;;;17.15;47.32;101094.30;106736;1288;60763;-85
2022/05/13 12:46:46;;;;;;;6.90;1.40;;;;;;;17.92;46.37;101101.46;107195;1286;60941;-84
2022/05/13 12:49:29;;;;;;;5.10;1.40;;;;;;;18.11;45.20;101097.09;107257;1287;77789;-85
2022/05/13 12:52:08;;;;;;;2.70;1.20;;;;;;;18.09;45.34;101089.25;107301;1284;72702;-85
2022/05/13 12:54:45;;;;;;;8.90;1.60;;;;;;;18.13;45.75;101082.54;107439;1286;75768;-81
2022/05/13 12:57:18;;;;;;;6.20;2.40;;;;;;;18.27;45.75;101090.05;107358;1287;60626;-83
2022/05/13 13:00:08;;;;;;;6.60;1.30;;;;;;;18.47;44.49;101099.14;107258;1287;60611;-83
2022/05/13 13:02:37;;;;;;;4.70;1.40;;;;;;;18.42;44.90;101095.29;107255;1286;76089;-81
2022/05/13 13:05:08;;;;;;;4.60;1.10;;;;;;;18.21;44.87;101097.61;107278;1287;72987;-81
2022/05/13 13:07:36;;;;;;;5.70;1.90;;;;;;;18.00;45.21;101095.53;107261;1287;73931;-83
2022/05/13 13:10:04;;;;;;;4.00;1.10;;;;;;;18.05;45.96;101087.84;107186;1287;61887;-84
2022/05/13 13:12:40;;;;;;;5.60;1.40;;;;;;;18.19;45.69;101091.15;107458;1286;61298;-83
2022/05/13 13:15:52;;;;;;;5.80;1.10;;;;;;;18.72;43.91;101086.60;107548;1285;77810;-83
2022/05/13 13:18:29;;;;;;;3.40;1.30;;;;;;;19.44;43.32;101085.86;107628;1287;71410;-83
2022/05/13 13:21:00;;;;;;;4.10;1.00;;;;;;;20.32;40.37;101098.83;107537;1287;72579;-82
2022/05/13 13:23:53;;;;;;;5.90;1.10;;;;;;;20.10;40.96;101092.17;107500;1285;60417;-85
2022/05/13 13:26:20;;;;;;;4.30;1.20;;;;;;;19.73;41.55;101091.08;107173;1287;60536;-83
2022/05/13 13:28:52;;;;;;;3.10;1.00;;;;;;;19.43;42.15;101093.92;107227;1285;76045;-84
2022/05/13 13:31:31;;;;;;;4.10;1.20;;;;;;;19.31;43.14;101093.52;106965;1287;72871;-84
2022/05/13 13:33:58;;;;;;;3.20;1.60;;;;;;;19.40;43.20;101098.55;107172;1287;73596;-84
2022/05/13 13:36:29;;;;;;;3.80;1.40;;;;;;;19.62;43.07;101087.52;107256;1287;60626;-83
2022/05/13 13:39:16;;;;;;;4.30;1.40;;;;;;;19.74;42.53;101089.21;107212;1286;62140;-83
2022/05/13 13:41:47;;;;;;;3.20;1.40;;;;;;;19.80;42.09;101085.63;107280;1287;75958;-84
2022/05/13 13:44:14;;;;;;;4.50;1.20;;;;;;;20.55;40.94;101077.20;107233;1285;71360;-84
2022/05/13 13:46:49;;;;;;;2.80;1.20;;;;;;;21.36;39.53;101072.16;107117;1286;73435;-83
2022/05/13 13:49:29;;;;;;;4.50;1.50;;;;;;;21.29;38.43;101082.34;106942;1288;61891;-82
2022/05/13 13:52:17;;;;;;;4.30;1.20;;;;;;;22.28;36.96;101081.36;107280;1286;61961;-81
2022/05/13 13:55:33;;;;;;;4.10;1.10;;;;;;;23.51;34.50;101082.88;107165;1287;77137;-82
2022/05/13 13:58:25;;;;;;;4.30;1.10;;;;;;;24.62;32.71;101069.56;106733;1287;71428;-83